ADDS METAR Data INFO
IDs: Format: Raw Decoded Include TAF

Data at: 2334 UTC 15 Dec 2017

METAR for:KMCO (Orlando Intl, FL, US)
Text:KMCO 152253Z 29007KT 10SM FEW100 BKN300 21/10 A3009 RMK AO2 SLP188 T02110100
Temperature: 21.1°C ( 70°F)
Dewpoint: 10.0°C ( 50°F) [RH = 49%]
Pressure (altimeter):30.09 inches Hg (1019.0 mb) [Sea level pressure: 1018.8 mb]
Winds:from the WNW (290 degrees) at 8 MPH (7 knots; 3.6 m/s)
Visibility:10 or more sm (16+ km)
Ceiling:30000 feet AGL
Clouds: few clouds at 10000 feet AGL, broken clouds at 30000 feet AGL